Time;durP1;ratioP1;P1;durP2;ratioP2;P2;SDS_P1;SDS_P2;PMS_P1;PMS_P2;Temp;Humidity;BMP_temperature;BMP_pressure;BME280_temperature;BME280_humidity;BME280_pressure;Samples;Min_cycle;Max_cycle;Signal;HPM_P1;HPM_P2
2021/10/04 00:01:22;;;;;;;2.13;1.92;;;15.70;99.90;;;;;;5032111;28;20409;-87
2021/10/04 00:03:48;;;;;;;1.90;1.80;;;15.70;99.90;;;;;;5032849;28;20469;-89
2021/10/04 00:06:15;;;;;;;2.08;1.90;;;15.70;99.90;;;;;;5032843;28;20045;-89
2021/10/04 00:08:42;;;;;;;2.00;1.90;;;15.60;99.90;;;;;;5033036;28;20053;-88
2021/10/04 00:11:09;;;;;;;2.33;2.22;;;15.70;99.90;;;;;;5032050;28;20132;-88
2021/10/04 00:13:36;;;;;;;2.55;1.95;;;15.70;99.90;;;;;;5033096;28;20132;-87
2021/10/04 00:16:03;;;;;;;2.03;1.83;;;15.70;99.90;;;;;;5031978;28;20052;-88
2021/10/04 00:18:30;;;;;;;2.45;1.80;;;15.70;99.90;;;;;;5033128;28;20056;-88
2021/10/04 00:20:57;;;;;;;1.92;1.88;;;15.80;99.90;;;;;;5033073;28;20639;-88
2021/10/04 00:23:24;;;;;;;2.10;1.80;;;15.80;99.90;;;;;;5031872;28;20051;-87
2021/10/04 00:25:51;;;;;;;2.55;1.80;;;15.80;99.90;;;;;;5031775;28;20060;-88
2021/10/04 00:28:17;;;;;;;2.00;1.90;;;15.90;99.90;;;;;;5032977;28;20049;-88
2021/10/04 00:30:44;;;;;;;1.70;1.60;;;15.80;99.90;;;;;;5032069;28;20052;-88
2021/10/04 00:33:11;;;;;;;1.80;1.70;;;15.80;99.90;;;;;;5033493;28;20506;-88
2021/10/04 00:35:38;;;;;;;1.83;1.52;;;15.80;99.90;;;;;;5034068;28;20056;-88
2021/10/04 00:38:04;;;;;;;2.78;1.80;;;15.70;99.90;;;;;;5032159;28;20048;-87
2021/10/04 00:40:34;;;;;;;2.08;1.88;;;15.70;99.90;;;;;;5031825;28;20080;-87
2021/10/04 00:43:02;;;;;;;1.88;1.77;;;15.70;99.90;;;;;;5031914;28;20045;-88
2021/10/04 00:45:30;;;;;;;2.13;1.67;;;15.60;99.90;;;;;;5032210;28;20063;-88
2021/10/04 00:47:58;;;;;;;1.73;1.63;;;15.60;99.90;;;;;;5035539;28;20445;-87
2021/10/04 00:50:25;;;;;;;2.03;1.92;;;15.60;99.90;;;;;;5035597;28;20494;-88
2021/10/04 00:52:52;;;;;;;1.92;1.83;;;15.50;99.90;;;;;;5035663;28;20046;-88
2021/10/04 00:55:19;;;;;;;2.95;2.05;;;15.50;99.90;;;;;;5035329;28;20088;-87
2021/10/04 00:57:47;;;;;;;1.80;1.70;;;15.50;99.90;;;;;;5035359;28;20042;-87
2021/10/04 01:00:18;;;;;;;1.33;1.27;;;15.40;99.90;;;;;;5035668;28;20055;-87
2021/10/04 01:02:45;;;;;;;1.80;1.20;;;15.40;99.90;;;;;;5035726;28;20547;-87
2021/10/04 01:05:13;;;;;;;1.58;1.48;;;15.40;99.90;;;;;;5035323;28;20466;-88
2021/10/04 01:07:40;;;;;;;1.63;1.50;;;15.50;99.90;;;;;;5036395;28;20096;-88
2021/10/04 01:10:09;;;;;;;1.50;1.40;;;15.50;99.90;;;;;;5035590;28;20073;-87
2021/10/04 01:12:41;;;;;;;1.60;1.50;;;15.50;99.90;;;;;;5035487;28;20084;-87
2021/10/04 01:15:09;;;;;;;1.35;1.30;;;15.60;99.90;;;;;;5035036;28;20087;-88
2021/10/04 01:17:36;;;;;;;3.22;2.00;;;15.50;99.90;;;;;;5035935;28;20093;-87
2021/10/04 01:20:24;;;;;;;1.73;1.52;;;15.50;99.90;;;;;;5036227;28;20060;-87
2021/10/04 01:22:52;;;;;;;1.50;1.40;;;15.50;99.90;;;;;;5035208;28;20049;-88
2021/10/04 01:25:20;;;;;;;1.90;1.30;;;15.50;99.90;;;;;;5034739;28;20136;-87
2021/10/04 01:27:48;;;;;;;1.75;1.60;;;15.50;99.90;;;;;;5035022;28;20046;-88
2021/10/04 01:30:19;;;;;;;3.30;1.77;;;15.50;99.90;;;;;;5034890;28;20569;-88
2021/10/04 01:32:46;;;;;;;2.63;1.83;;;15.40;99.90;;;;;;5035848;28;20140;-88
2021/10/04 01:35:13;;;;;;;3.28;1.60;;;15.30;99.90;;;;;;5034548;28;20490;-87
2021/10/04 01:37:40;;;;;;;1.80;1.70;;;15.30;99.90;;;;;;5034754;28;20056;-87
2021/10/04 01:40:09;;;;;;;2.53;1.85;;;15.30;99.90;;;;;;5034874;28;20041;-88
2021/10/04 01:42:37;;;;;;;1.70;1.60;;;15.30;99.90;;;;;;5034793;28;20052;-88
2021/10/04 01:45:08;;;;;;;2.05;1.83;;;15.20;99.90;;;;;;5034622;28;20048;-88
2021/10/04 01:47:35;;;;;;;3.42;2.35;;;15.10;99.90;;;;;;5034275;28;20057;-88
2021/10/04 01:50:03;;;;;;;3.42;1.80;;;15.10;99.90;;;;;;5034723;28;20053;-88
2021/10/04 01:52:30;;;;;;;4.03;2.00;;;15.20;99.90;;;;;;5037933;28;20150;-87
2021/10/04 01:54:57;;;;;;;4.35;1.80;;;15.10;99.90;;;;;;5035168;28;20103;-88
2021/10/04 01:57:23;;;;;;;3.40;2.05;;;15.10;99.90;;;;;;5034312;28;20046;-88
2021/10/04 01:59:50;;;;;;;2.90;1.90;;;15.10;99.90;;;;;;5034672;28;20056;-87
2021/10/04 02:02:17;;;;;;;1.98;1.88;;;15.00;99.90;;;;;;5035196;28;20071;-87
2021/10/04 02:04:44;;;;;;;5.57;2.00;;;15.00;99.90;;;;;;5034160;28;20103;-88
2021/10/04 02:07:11;;;;;;;2.20;1.67;;;14.90;99.90;;;;;;5034223;28;20056;-88
2021/10/04 02:09:37;;;;;;;4.00;1.60;;;14.80;99.90;;;;;;5033801;28;20060;-88
2021/10/04 02:12:05;;;;;;;3.40;1.60;;;14.80;99.90;;;;;;5034295;28;20081;-87
2021/10/04 02:14:31;;;;;;;4.75;1.90;;;14.80;99.90;;;;;;5034228;28;20111;-88
2021/10/04 02:16:58;;;;;;;2.42;1.65;;;14.80;99.90;;;;;;5033605;28;20141;-87
2021/10/04 02:19:25;;;;;;;7.15;2.55;;;14.80;99.90;;;;;;5033868;28;20148;-88
2021/10/04 02:21:52;;;;;;;2.83;1.77;;;14.80;99.90;;;;;;5035135;28;20052;-87
2021/10/04 02:24:18;;;;;;;3.40;1.83;;;14.80;99.90;;;;;;5033822;28;20075;-87
2021/10/04 02:26:45;;;;;;;3.00;1.95;;;14.80;99.90;;;;;;5034036;28;20046;-88
2021/10/04 02:29:12;;;;;;;4.25;1.70;;;14.70;99.90;;;;;;5033536;28;20419;-87
2021/10/04 02:31:39;;;;;;;5.50;1.70;;;14.80;99.90;;;;;;5034546;28;20053;-88
2021/10/04 02:34:06;;;;;;;2.28;1.88;;;14.80;99.90;;;;;;5034776;28;20136;-88
2021/10/04 02:36:32;;;;;;;2.05;1.40;;;14.70;99.90;;;;;;5033653;28;20092;-87
2021/10/04 02:38:59;;;;;;;3.65;1.77;;;14.70;99.90;;;;;;5034803;28;20049;-87
2021/10/04 02:41:26;;;;;;;2.50;1.58;;;14.70;99.90;;;;;;5033619;28;20057;-88
2021/10/04 02:43:53;;;;;;;3.92;1.50;;;14.80;99.90;;;;;;5034581;28;20049;-87
2021/10/04 02:46:20;;;;;;;7.43;2.20;;;14.70;99.90;;;;;;5033012;28;20512;-88
2021/10/04 02:48:47;;;;;;;3.03;2.15;;;14.60;99.90;;;;;;5033674;28;20050;-88
2021/10/04 02:51:14;;;;;;;3.08;1.80;;;14.70;99.90;;;;;;5033734;28;20071;-88
2021/10/04 02:53:40;;;;;;;1.80;1.70;;;14.70;99.90;;;;;;5034599;28;20441;-88
2021/10/04 02:56:08;;;;;;;1.70;1.60;;;14.70;99.90;;;;;;5033533;28;20046;-88
2021/10/04 02:58:34;;;;;;;2.95;2.03;;;14.60;99.90;;;;;;5033667;28;20060;-88
2021/10/04 03:01:02;;;;;;;1.60;1.50;;;14.50;99.90;;;;;;5033343;28;20049;-88
2021/10/04 03:03:29;;;;;;;3.90;1.55;;;14.60;99.90;;;;;;5033258;28;20064;-87
2021/10/04 03:05:56;;;;;;;1.98;1.80;;;14.60;99.90;;;;;;5033426;28;20045;-88
2021/10/04 03:08:22;;;;;;;2.70;1.90;;;14.60;99.90;;;;;;5034719;28;20450;-88
2021/10/04 03:10:49;;;;;;;3.28;2.10;;;14.60;99.90;;;;;;5036308;28;20049;-88
2021/10/04 03:13:16;;;;;;;2.13;1.83;;;14.50;99.90;;;;;;5034621;28;20077;-88
2021/10/04 03:15:44;;;;;;;4.15;1.70;;;14.60;99.90;;;;;;5033062;28;20046;-88
2021/10/04 03:18:11;;;;;;;4.95;1.67;;;14.60;99.90;;;;;;5034281;28;20060;-88
2021/10/04 03:20:39;;;;;;;2.33;2.13;;;14.60;99.90;;;;;;5033126;28;20410;-88
2021/10/04 03:23:06;;;;;;;3.53;1.95;;;14.60;99.90;;;;;;5033175;28;20056;-89
2021/10/04 03:25:33;;;;;;;3.53;1.92;;;14.60;99.90;;;;;;5033871;28;20049;-88
2021/10/04 03:28:00;;;;;;;3.72;3.42;;;14.60;99.90;;;;;;5032796;28;20482;-88
2021/10/04 03:30:27;;;;;;;3.65;3.28;;;14.60;99.90;;;;;;5033134;28;20421;-87
2021/10/04 03:32:54;;;;;;;3.05;2.65;;;14.60;99.90;;;;;;5033227;28;20060;-88
2021/10/04 03:35:22;;;;;;;2.20;2.10;;;14.60;99.90;;;;;;5032571;28;20565;-87
2021/10/04 03:37:49;;;;;;;1.95;1.85;;;14.40;99.90;;;;;;5033958;28;20087;-88
2021/10/04 03:40:16;;;;;;;3.83;2.03;;;14.50;99.90;;;;;;5032784;28;20049;-87
2021/10/04 03:42:43;;;;;;;3.60;1.85;;;14.40;99.90;;;;;;5033629;28;20513;-87
2021/10/04 03:45:12;;;;;;;2.72;2.00;;;14.40;99.90;;;;;;5032391;28;20584;-88
2021/10/04 03:47:40;;;;;;;6.93;2.28;;;14.50;99.90;;;;;;5032651;28;20063;-88
2021/10/04 03:50:09;;;;;;;2.85;2.00;;;14.40;99.90;;;;;;5032793;28;20088;-87
2021/10/04 03:52:37;;;;;;;3.65;2.33;;;14.40;99.90;;;;;;5033312;28;20056;-88
2021/10/04 03:55:05;;;;;;;2.67;2.10;;;14.30;99.90;;;;;;5016132;28;20084;-87
2021/10/04 03:57:32;;;;;;;2.10;1.90;;;14.30;99.90;;;;;;5032440;28;20067;-87
2021/10/04 03:59:59;;;;;;;2.10;2.00;;;14.40;99.90;;;;;;5032724;28;20067;-87
2021/10/04 04:02:26;;;;;;;3.20;2.70;;;14.30;99.90;;;;;;5032505;28;20107;-88
2021/10/04 04:04:53;;;;;;;3.50;2.38;;;14.30;99.90;;;;;;5032358;28;20410;-88
2021/10/04 04:07:20;;;;;;;5.63;3.10;;;14.40;99.90;;;;;;5032346;28;20057;-87
2021/10/04 04:09:46;;;;;;;7.10;2.50;;;14.40;99.90;;;;;;5033463;28;20084;-88
2021/10/04 04:12:13;;;;;;;2.45;2.25;;;14.40;99.90;;;;;;5033440;28;20045;-88
2021/10/04 04:14:40;;;;;;;8.57;2.78;;;14.30;99.90;;;;;;5032703;28;20516;-88
2021/10/04 04:17:06;;;;;;;3.00;2.80;;;14.30;99.90;;;;;;5031940;28;20057;-88
2021/10/04 04:19:33;;;;;;;6.35;2.22;;;14.20;99.90;;;;;;5032050;28;20047;-88
2021/10/04 04:22:00;;;;;;;5.50;2.47;;;14.20;99.90;;;;;;5033437;28;20056;-88
2021/10/04 04:24:27;;;;;;;4.13;1.88;;;14.20;99.90;;;;;;5037045;28;20490;-88
2021/10/04 04:26:54;;;;;;;3.17;2.00;;;14.20;99.90;;;;;;5039373;28;20053;-88
2021/10/04 04:29:22;;;;;;;2.80;2.17;;;14.20;99.90;;;;;;5056442;28;20076;-88
2021/10/04 04:31:50;;;;;;;2.97;1.88;;;14.20;99.90;;;;;;5042203;28;20049;-87
2021/10/04 04:34:17;;;;;;;4.13;2.40;;;14.20;99.90;;;;;;5036937;28;20129;-88
2021/10/04 04:36:44;;;;;;;2.92;2.60;;;14.20;99.90;;;;;;5036843;28;20054;-88
2021/10/04 04:39:11;;;;;;;4.15;2.42;;;14.10;99.90;;;;;;5036021;28;20100;-87
2021/10/04 04:41:38;;;;;;;4.50;2.40;;;14.10;99.90;;;;;;5036219;28;20049;-88
2021/10/04 04:44:05;;;;;;;3.58;2.40;;;14.10;99.90;;;;;;5037296;28;20482;-87
2021/10/04 04:46:32;;;;;;;3.67;2.70;;;14.10;99.90;;;;;;5035996;28;20512;-88
2021/10/04 04:48:58;;;;;;;6.85;2.55;;;14.10;99.90;;;;;;5035943;28;20055;-88
2021/10/04 04:51:25;;;;;;;2.70;2.00;;;14.00;99.90;;;;;;5037087;28;20092;-89
2021/10/04 04:53:52;;;;;;;3.20;2.33;;;14.00;99.90;;;;;;5037082;28;20096;-88
2021/10/04 04:56:19;;;;;;;3.35;2.58;;;14.00;99.90;;;;;;5035890;28;20078;-88
2021/10/04 04:58:46;;;;;;;3.33;2.22;;;14.10;99.90;;;;;;5036147;28;20080;-88
2021/10/04 05:01:13;;;;;;;3.10;2.60;;;14.10;99.90;;;;;;5035720;28;20080;-87
2021/10/04 05:03:40;;;;;;;3.08;2.80;;;14.10;99.90;;;;;;5035792;28;20057;-88
2021/10/04 05:06:07;;;;;;;4.13;2.83;;;14.10;99.90;;;;;;5036940;28;20053;-87
2021/10/04 05:08:34;;;;;;;3.13;2.83;;;14.00;99.90;;;;;;5035666;28;20171;-86
2021/10/04 05:11:00;;;;;;;7.55;2.75;;;14.00;99.90;;;;;;5035783;28;20509;-88
2021/10/04 05:13:27;;;;;;;3.53;3.22;;;14.00;99.90;;;;;;5036587;28;20072;-88
2021/10/04 05:15:55;;;;;;;4.22;3.17;;;14.00;99.90;;;;;;5035464;28;20490;-88
2021/10/04 05:18:22;;;;;;;3.60;3.00;;;13.90;99.90;;;;;;5035644;28;20052;-88
2021/10/04 05:20:49;;;;;;;9.95;3.30;;;14.00;99.90;;;;;;5036561;28;20092;-88
2021/10/04 05:23:15;;;;;;;3.25;2.95;;;13.90;99.90;;;;;;5035315;28;20080;-88
2021/10/04 05:25:42;;;;;;;4.47;3.22;;;14.00;99.90;;;;;;5035508;28;20049;-88
2021/10/04 05:28:09;;;;;;;7.72;3.45;;;13.90;99.90;;;;;;5036407;28;20056;-88
2021/10/04 05:30:36;;;;;;;5.15;3.30;;;13.80;99.90;;;;;;5036391;28;20080;-86
2021/10/04 05:33:03;;;;;;;8.25;3.10;;;13.80;99.90;;;;;;5034745;28;20046;-86
2021/10/04 05:35:30;;;;;;;4.88;3.13;;;13.90;99.90;;;;;;5035056;28;20053;-88
2021/10/04 05:37:56;;;;;;;7.18;3.30;;;13.90;99.90;;;;;;5036343;28;20050;-88
2021/10/04 05:40:23;;;;;;;3.20;2.97;;;13.90;99.90;;;;;;5035245;28;20045;-88
2021/10/04 05:42:50;;;;;;;7.82;3.08;;;13.90;99.90;;;;;;5036531;28;20059;-88
2021/10/04 05:45:17;;;;;;;3.90;3.15;;;13.90;99.90;;;;;;5038055;28;20136;-88
2021/10/04 05:47:44;;;;;;;5.90;3.45;;;13.90;99.90;;;;;;5057218;28;20081;-88
2021/10/04 05:50:12;;;;;;;2.80;2.60;;;13.90;99.90;;;;;;5042138;28;20049;-88
2021/10/04 05:52:39;;;;;;;5.13;2.90;;;13.90;99.90;;;;;;5036181;28;20052;-88
2021/10/04 05:55:08;;;;;;;8.13;3.60;;;13.90;99.90;;;;;;5035898;28;20051;-88
2021/10/04 05:57:36;;;;;;;5.53;2.92;;;13.90;99.90;;;;;;5034925;28;20042;-88
2021/10/04 06:00:08;;;;;;;9.90;2.80;;;13.90;99.90;;;;;;5035838;28;20470;-88
2021/10/04 06:02:35;;;;;;;6.43;3.80;;;13.90;99.90;;;;;;5033738;28;20438;-88
2021/10/04 06:05:04;;;;;;;6.05;3.05;;;13.90;99.90;;;;;;5033571;28;20053;-87
2021/10/04 06:07:31;;;;;;;7.20;2.95;;;14.00;99.90;;;;;;5033837;28;20049;-88
2021/10/04 06:09:58;;;;;;;4.70;3.10;;;13.90;99.90;;;;;;5034248;28;20049;-88
2021/10/04 06:12:26;;;;;;;3.95;3.60;;;14.00;99.90;;;;;;5033721;28;20605;-88
2021/10/04 06:14:55;;;;;;;14.68;6.13;;;14.00;99.90;;;;;;5034618;28;20045;-88
2021/10/04 06:17:22;;;;;;;7.53;4.82;;;13.90;99.90;;;;;;5034056;28;20057;-88
2021/10/04 06:19:49;;;;;;;8.73;3.80;;;13.90;99.90;;;;;;5033415;28;20513;-89
2021/10/04 06:22:17;;;;;;;9.43;3.42;;;13.90;99.90;;;;;;5032258;28;20053;-88
2021/10/04 06:24:44;;;;;;;11.43;3.72;;;13.90;99.90;;;;;;5033177;28;20049;-88
2021/10/04 06:27:11;;;;;;;7.32;3.58;;;13.90;99.90;;;;;;5033692;28;20055;-88
2021/10/04 06:29:38;;;;;;;11.65;10.52;;;14.00;99.90;;;;;;5033676;28;20041;-87
2021/10/04 06:32:06;;;;;;;13.23;9.48;;;14.00;99.90;;;;;;5032657;28;20088;-88
2021/10/04 06:34:32;;;;;;;6.47;5.50;;;14.00;99.90;;;;;;5034080;28;20042;-88
2021/10/04 06:37:00;;;;;;;9.48;5.78;;;14.00;99.90;;;;;;5034169;28;20053;-88
2021/10/04 06:39:27;;;;;;;12.40;9.05;;;14.00;99.90;;;;;;5034948;28;20049;-88
2021/10/04 06:41:55;;;;;;;17.10;7.25;;;14.00;99.90;;;;;;5034267;28;20555;-88
2021/10/04 06:44:21;;;;;;;6.35;3.92;;;14.00;99.90;;;;;;5033711;28;20462;-88
2021/10/04 06:46:59;;;;;;;7.43;3.35;;;14.10;99.90;;;;;;5034077;28;20540;-88
2021/10/04 06:49:31;;;;;;;5.25;3.65;;;14.10;99.90;;;;;;5034027;28;20507;-88
2021/10/04 06:51:58;;;;;;;5.28;3.35;;;14.10;99.90;;;;;;5035028;28;20167;-88
2021/10/04 06:54:24;;;;;;;6.75;3.20;;;14.20;99.90;;;;;;5033865;28;20438;-88
2021/10/04 06:56:51;;;;;;;4.50;2.95;;;14.20;99.90;;;;;;5033747;28;20045;-88
2021/10/04 06:59:18;;;;;;;4.97;3.72;;;14.10;99.90;;;;;;5034029;28;20045;-88
2021/10/04 07:01:45;;;;;;;6.75;2.00;;;14.10;99.90;;;;;;5034322;28;20088;-89
2021/10/04 07:04:12;;;;;;;4.70;2.28;;;14.00;99.90;;;;;;5039684;28;20048;-87
2021/10/04 07:06:39;;;;;;;3.92;2.10;;;14.00;99.90;;;;;;5055581;28;20076;-88
2021/10/04 07:09:06;;;;;;;2.97;1.75;;;14.00;99.90;;;;;;5040063;28;20566;-87
2021/10/04 07:11:33;;;;;;;1.10;1.10;;;13.90;99.90;;;;;;5033555;28;20055;-89
2021/10/04 07:14:00;;;;;;;0.80;0.80;;;13.90;99.90;;;;;;5033155;28;20050;-89
2021/10/04 07:16:26;;;;;;;6.38;1.05;;;13.90;99.90;;;;;;5033626;28;20484;-90
2021/10/04 07:18:53;;;;;;;3.58;0.60;;;13.80;99.90;;;;;;5032889;28;20049;-89
2021/10/04 07:21:20;;;;;;;1.52;0.77;;;13.80;99.90;;;;;;5033874;28;20045;-89
2021/10/04 07:23:47;;;;;;;0.95;0.63;;;13.70;99.90;;;;;;5032994;28;20421;-88
2021/10/04 07:26:14;;;;;;;3.03;0.60;;;13.80;99.90;;;;;;5033553;28;20053;-88
2021/10/04 07:28:41;;;;;;;6.00;1.30;;;13.90;99.90;;;;;;5032364;28;20053;-89
2021/10/04 07:31:09;;;;;;;1.08;0.77;;;13.90;99.90;;;;;;5032700;28;20053;-88
2021/10/04 07:33:36;;;;;;;3.25;0.60;;;13.90;99.90;;;;;;5032678;28;20049;-88
2021/10/04 07:36:06;;;;;;;2.75;0.75;;;14.10;99.90;;;;;;5032806;28;20051;-87
2021/10/04 07:38:35;;;;;;;4.68;0.80;;;14.00;99.90;;;;;;5033634;28;20417;-88
2021/10/04 07:41:04;;;;;;;3.47;1.10;;;14.10;99.90;;;;;;5032608;28;20136;-88
2021/10/04 07:43:33;;;;;;;5.40;1.00;;;14.10;99.90;;;;;;5032723;28;20041;-88
2021/10/04 07:46:03;;;;;;;2.75;0.55;;;14.10;99.90;;;;;;5033014;28;20125;-87
2021/10/04 07:48:31;;;;;;;1.88;0.70;;;14.20;99.90;;;;;;5032524;28;20045;-88
2021/10/04 07:50:59;;;;;;;2.10;0.50;;;14.20;99.90;;;;;;5032528;28;20111;-89
2021/10/04 07:53:25;;;;;;;0.75;0.73;;;14.30;99.90;;;;;;5032315;28;20132;-88
2021/10/04 07:55:52;;;;;;;0.90;0.65;;;14.30;99.90;;;;;;5032271;28;20482;-88
2021/10/04 07:58:19;;;;;;;2.38;0.35;;;14.30;99.90;;;;;;5029739;28;20049;-89
2021/10/04 08:00:46;;;;;;;3.63;0.30;;;14.20;99.90;;;;;;5032243;28;20060;-88
2021/10/04 08:03:13;;;;;;;4.07;0.80;;;14.10;99.90;;;;;;5033257;28;20053;-88
2021/10/04 08:05:40;;;;;;;4.72;0.60;;;14.10;99.90;;;;;;5032164;28;20053;-88
2021/10/04 08:08:06;;;;;;;4.18;0.60;;;14.10;99.90;;;;;;5033209;28;20041;-88
2021/10/04 08:10:33;;;;;;;2.78;0.60;;;14.10;99.90;;;;;;5032243;28;20053;-88
2021/10/04 08:13:00;;;;;;;9.20;1.17;;;14.20;99.90;;;;;;5033252;28;20429;-88
2021/10/04 08:15:27;;;;;;;7.47;0.88;;;14.20;99.90;;;;;;5031960;28;20054;-88
2021/10/04 08:17:54;;;;;;;2.72;0.65;;;14.30;99.90;;;;;;5033175;28;20049;-89
2021/10/04 08:20:22;;;;;;;1.05;0.40;;;14.20;99.90;;;;;;5032266;28;20053;-87
2021/10/04 08:22:49;;;;;;;0.70;0.50;;;14.00;99.90;;;;;;5039058;28;20077;-88
2021/10/04 08:25:16;;;;;;;2.70;0.30;;;14.00;99.90;;;;;;5055684;28;20089;-86
2021/10/04 08:27:43;;;;;;;2.10;0.47;;;14.10;99.90;;;;;;5038293;28;20055;-89
2021/10/04 08:30:12;;;;;;;1.15;0.22;;;13.90;99.90;;;;;;5032344;28;20500;-88
2021/10/04 08:32:39;;;;;;;2.78;0.50;;;13.90;99.90;;;;;;5032029;28;20045;-89
2021/10/04 08:35:07;;;;;;;0.30;0.30;;;14.00;99.90;;;;;;5032424;28;20042;-89
2021/10/04 08:37:35;;;;;;;6.20;0.60;;;14.00;99.90;;;;;;5032034;28;20049;-89
2021/10/04 08:40:05;;;;;;;2.15;0.77;;;14.00;99.90;;;;;;5030782;28;20060;-89
2021/10/04 08:42:33;;;;;;;7.00;0.70;;;14.30;99.90;;;;;;5030670;28;20083;-89
2021/10/04 08:45:00;;;;;;;1.92;0.85;;;14.40;99.90;;;;;;5030862;28;20052;-88
2021/10/04 08:47:27;;;;;;;4.45;0.47;;;14.50;99.90;;;;;;5031504;28;20144;-89
2021/10/04 08:49:54;;;;;;;1.80;0.60;;;14.60;99.90;;;;;;5030551;28;20388;-89
2021/10/04 08:52:21;;;;;;;4.05;0.40;;;14.50;99.90;;;;;;5032253;28;20056;-89
2021/10/04 08:54:48;;;;;;;2.92;0.70;;;14.20;99.90;;;;;;5032165;28;20045;-89
2021/10/04 08:57:15;;;;;;;0.95;0.60;;;14.10;99.90;;;;;;5032309;28;20478;-90
2021/10/04 08:59:41;;;;;;;0.90;0.55;;;13.90;99.90;;;;;;5032250;28;20045;-90
2021/10/04 09:02:22;;;;;;;2.28;0.50;;;13.90;99.90;;;;;;5032299;28;20132;-91
2021/10/04 09:05:08;;;;;;;3.75;0.40;;;13.90;99.90;;;;;;5033298;28;20081;-89
2021/10/04 09:07:47;;;;;;;5.50;0.57;;;13.90;99.90;;;;;;5032521;28;20184;-89
2021/10/04 09:10:26;;;;;;;2.25;0.65;;;13.90;99.90;;;;;;5035773;28;20049;-90
2021/10/04 09:13:01;;;;;;;0.40;0.40;;;13.80;99.90;;;;;;5037121;28;20490;-90
2021/10/04 09:15:33;;;;;;;1.67;0.40;;;13.70;99.90;;;;;;5037065;28;20057;-87
2021/10/04 09:18:19;;;;;;;3.35;0.40;;;13.60;99.90;;;;;;5035618;28;20553;-88
2021/10/04 09:20:50;;;;;;;0.95;0.40;;;13.50;99.90;;;;;;5035624;28;20041;-89
2021/10/04 09:23:52;;;;;;;0.63;0.30;;;13.40;99.90;;;;;;5035325;28;20045;-88
2021/10/04 09:26:24;;;;;;;4.97;0.63;;;13.40;99.90;;;;;;5035214;28;20129;-87
2021/10/04 09:29:07;;;;;;;1.10;0.50;;;13.50;99.90;;;;;;5036615;28;20072;-88
2021/10/04 09:31:43;;;;;;;4.50;0.70;;;13.50;99.90;;;;;;5035374;28;20080;-88
2021/10/04 09:34:27;;;;;;;4.40;1.38;;;13.60;99.90;;;;;;5034727;28;20045;-89
2021/10/04 09:36:57;;;;;;;2.95;0.80;;;13.70;99.90;;;;;;5035981;28;20135;-87
2021/10/04 09:39:27;;;;;;;4.68;0.77;;;13.80;99.90;;;;;;5035184;28;20053;-88
2021/10/04 09:42:06;;;;;;;2.25;0.30;;;13.90;99.90;;;;;;5049950;28;20105;-88
2021/10/04 09:44:42;;;;;;;2.17;0.40;;;14.00;99.90;;;;;;5054285;28;20052;-88
2021/10/04 09:47:09;;;;;;;0.28;0.20;;;14.10;99.90;;;;;;5036701;28;20048;-88
2021/10/04 09:50:06;;;;;;;0.32;0.20;;;14.20;99.90;;;;;;5035855;28;20050;-88
2021/10/04 09:52:41;;;;;;;1.00;0.22;;;14.30;99.90;;;;;;5035102;28;20128;-89
2021/10/04 09:55:12;;;;;;;0.13;0.10;;;14.20;99.90;;;;;;5034752;28;20091;-88
2021/10/04 09:57:39;;;;;;;0.30;0.13;;;14.20;99.90;;;;;;5035980;28;20083;-88
2021/10/04 10:00:07;;;;;;;10.82;0.55;;;14.10;99.90;;;;;;5034789;28;20164;-88
2021/10/04 10:02:34;;;;;;;4.07;0.52;;;14.20;99.90;;;;;;5035388;28;20112;-89
2021/10/04 10:05:01;;;;;;;2.33;0.30;;;14.20;99.90;;;;;;5034804;28;20140;-88
2021/10/04 10:07:28;;;;;;;3.65;0.47;;;14.30;99.90;;;;;;5035951;28;20053;-88
2021/10/04 10:09:55;;;;;;;0.63;0.15;;;14.40;99.90;;;;;;5035188;28;20105;-89
2021/10/04 10:12:22;;;;;;;0.70;0.32;;;14.40;99.90;;;;;;5035520;28;20136;-89
2021/10/04 10:14:49;;;;;;;0.85;0.43;;;14.20;99.90;;;;;;5036460;28;20064;-90
2021/10/04 10:17:22;;;;;;;7.63;0.57;;;14.10;99.90;;;;;;5033869;28;20063;-89
2021/10/04 10:19:53;;;;;;;1.55;0.40;;;14.10;99.90;;;;;;5033910;28;20057;-88
2021/10/04 10:22:20;;;;;;;5.88;0.73;;;14.10;99.90;;;;;;5034342;28;20173;-89
2021/10/04 10:24:48;;;;;;;1.45;0.30;;;14.10;99.90;;;;;;5034830;28;20072;-89
2021/10/04 10:27:15;;;;;;;1.05;0.25;;;14.00;99.90;;;;;;5034361;28;20041;-89
2021/10/04 10:29:43;;;;;;;1.92;0.40;;;13.90;99.90;;;;;;5034732;28;20085;-89
2021/10/04 10:32:11;;;;;;;5.28;0.52;;;14.00;99.90;;;;;;5035417;28;20049;-89
2021/10/04 10:34:39;;;;;;;0.82;0.40;;;14.00;99.90;;;;;;5034274;28;20084;-89
2021/10/04 10:37:12;;;;;;;1.73;0.38;;;13.90;99.90;;;;;;5033939;28;20049;-88
2021/10/04 10:39:49;;;;;;;6.03;0.40;;;14.00;99.90;;;;;;5034223;28;20053;-89
2021/10/04 10:42:31;;;;;;;3.75;0.40;;;13.90;99.90;;;;;;5033486;28;20051;-88
2021/10/04 10:44:58;;;;;;;3.10;0.40;;;13.90;99.90;;;;;;5031614;28;20041;-90
2021/10/04 10:47:36;;;;;;;1.67;0.50;;;13.90;99.90;;;;;;5033611;28;20133;-88
2021/10/04 10:50:05;;;;;;;3.92;0.80;;;14.10;99.90;;;;;;5033667;28;20121;-89
2021/10/04 10:52:43;;;;;;;10.20;5.63;;;13.90;99.90;;;;;;5033562;28;20084;-89
2021/10/04 10:55:19;;;;;;;56.50;40.53;;;13.70;99.90;;;;;;5033941;28;20049;-88
2021/10/04 10:57:49;;;;;;;10.02;9.00;;;13.70;99.90;;;;;;5034893;28;20520;-88
2021/10/04 11:00:37;;;;;;;67.97;35.47;;;13.60;99.90;;;;;;5044888;28;20035;-89
2021/10/04 11:03:10;;;;;;;195.20;94.50;;;13.60;99.90;;;;;;5057224;28;20041;-89
2021/10/04 11:05:37;;;;;;;188.80;87.05;;;13.60;99.90;;;;;;5035560;28;20049;-88
2021/10/04 11:08:09;;;;;;;23.73;10.18;;;13.50;99.90;;;;;;5035111;28;20132;-88
2021/10/04 11:10:56;;;;;;;4.97;3.30;;;13.50;99.90;;;;;;5033921;28;20409;-89
2021/10/04 11:13:22;;;;;;;2.45;0.77;;;13.30;99.90;;;;;;5034027;28;20120;-88
2021/10/04 11:15:52;;;;;;;2.53;0.60;;;13.20;99.90;;;;;;5032984;28;20052;-89
2021/10/04 11:18:20;;;;;;;1.95;0.40;;;13.20;99.90;;;;;;5034202;28;20054;-89
2021/10/04 11:20:48;;;;;;;29.70;21.17;;;13.20;99.90;;;;;;5033628;28;20478;-89
2021/10/04 11:23:19;;;;;;;32.40;22.58;;;13.10;99.90;;;;;;5030324;28;20045;-89
2021/10/04 11:25:52;;;;;;;46.50;28.65;;;13.00;99.90;;;;;;5032902;28;20513;-89
2021/10/04 11:28:37;;;;;;;6.73;4.33;;;13.00;99.90;;;;;;5033025;28;20050;-89
2021/10/04 11:31:08;;;;;;;0.50;0.30;;;13.00;99.90;;;;;;5033143;28;20304;-89
2021/10/04 11:33:52;;;;;;;5.78;0.52;;;13.10;99.90;;;;;;5032442;28;20141;-89
2021/10/04 11:36:21;;;;;;;1.98;1.33;;;13.10;99.90;;;;;;5033695;28;20045;-90
2021/10/04 11:38:51;;;;;;;3.70;3.40;;;13.10;99.90;;;;;;5033584;28;20053;-92
2021/10/04 11:41:49;;;;;;;1.90;1.80;;;12.90;99.90;;;;;;5032512;28;20048;-90
2021/10/04 11:44:23;;;;;;;2.92;2.83;;;12.90;99.90;;;;;;5028048;28;20140;-90
2021/10/04 11:46:52;;;;;;;;;;;12.90;99.90;;;;;;5031681;28;20053;-92
2021/10/04 11:49:22;;;;;;;1.50;1.50;;;12.90;99.90;;;;;;5032325;28;20358;-92
2021/10/04 11:51:53;;;;;;;4.38;4.03;;;13.00;99.90;;;;;;5031739;28;20053;-92
2021/10/04 11:54:43;;;;;;;3.00;2.10;;;12.90;99.90;;;;;;5031358;28;20052;-92
2021/10/04 11:57:31;;;;;;;1.95;1.80;;;12.90;99.90;;;;;;5033000;28;20140;-93
2021/10/04 12:00:02;;;;;;;1.90;1.80;;;12.90;99.90;;;;;;5034081;28;20159;-93
2021/10/04 12:02:32;;;;;;;3.50;1.20;;;12.80;99.90;;;;;;5034160;28;20049;-92
2021/10/04 12:05:09;;;;;;;1.48;1.13;;;12.90;99.90;;;;;;5034838;28;20052;-92
2021/10/04 12:07:36;;;;;;;0.95;0.80;;;12.80;99.90;;;;;;5034486;28;20064;-91
2021/10/04 12:10:03;;;;;;;3.15;1.05;;;12.90;99.90;;;;;;5034297;28;20050;-91
2021/10/04 12:12:35;;;;;;;1.40;1.08;;;12.90;99.90;;;;;;5036544;28;20117;-91
2021/10/04 12:15:04;;;;;;;1.25;0.95;;;12.90;99.90;;;;;;5033327;28;20051;-90
2021/10/04 12:17:38;;;;;;;1.83;1.10;;;13.00;99.90;;;;;;5035837;28;20062;-90
2021/10/04 12:20:07;;;;;;;2.20;0.93;;;12.90;99.90;;;;;;5052218;28;20055;-90
2021/10/04 12:22:36;;;;;;;6.30;1.20;;;12.80;99.90;;;;;;5027846;28;20060;-91
2021/10/04 12:25:03;;;;;;;1.73;0.93;;;13.00;99.90;;;;;;5033086;28;20088;-90
2021/10/04 12:27:31;;;;;;;5.43;1.02;;;13.10;99.90;;;;;;5032804;28;20049;-89
2021/10/04 12:30:00;;;;;;;0.77;0.68;;;13.20;99.90;;;;;;5032832;28;20053;-91
2021/10/04 12:32:31;;;;;;;2.53;0.85;;;13.10;99.90;;;;;;5033094;28;20056;-90
2021/10/04 12:35:01;;;;;;;0.85;0.70;;;13.10;99.90;;;;;;5034013;28;20056;-91
2021/10/04 12:37:31;;;;;;;1.58;1.20;;;13.20;99.90;;;;;;5033262;28;20409;-90
2021/10/04 12:39:58;;;;;;;1.65;0.50;;;13.40;99.90;;;;;;5034123;28;20052;-91
2021/10/04 12:42:27;;;;;;;5.07;0.60;;;13.60;99.90;;;;;;5033493;28;20099;-90
2021/10/04 12:44:54;;;;;;;0.45;0.43;;;13.70;99.90;;;;;;5036609;28;20045;-90
2021/10/04 12:47:21;;;;;;;0.40;0.40;;;13.80;99.90;;;;;;5036224;28;20059;-90
2021/10/04 12:49:58;;;;;;;0.50;0.50;;;13.90;99.90;;;;;;5037383;28;20091;-90
2021/10/04 12:52:29;;;;;;;2.30;0.73;;;14.10;99.90;;;;;;5036433;28;20059;-90
2021/10/04 12:54:57;;;;;;;1.95;0.45;;;14.10;99.90;;;;;;5036488;28;20562;-90